Time;durP1;ratioP1;P1;durP2;ratioP2;P2;SDS_P1;SDS_P2;PMS_P1;PMS_P2;Temp;Humidity;BMP_temperature;BMP_pressure;BME280_temperature;BME280_humidity;BME280_pressure;Samples;Min_cycle;Max_cycle;Signal;HPM_P1;HPM_P2
2023/10/29 00:00:55;;;;;;;0.50;0.50;;;0.20;99.90;;;;;;5075718;28;20220;-70
2023/10/29 00:03:20;;;;;;;0.68;0.68;;;0.30;99.90;;;;;;5074948;28;20199;-69
2023/10/29 00:05:46;;;;;;;0.70;0.70;;;0.20;99.90;;;;;;5090885;28;20192;-70
2023/10/29 00:08:12;;;;;;;0.60;0.60;;;0.20;99.90;;;;;;5090919;28;20192;-69
2023/10/29 00:10:37;;;;;;;0.80;0.80;;;0.20;99.90;;;;;;5090800;28;20235;-70
2023/10/29 00:13:04;;;;;;;0.60;0.60;;;0.20;99.90;;;;;;5091117;28;20613;-71
2023/10/29 00:15:30;;;;;;;0.60;0.60;;;0.20;99.90;;;;;;5090676;28;20202;-70
2023/10/29 00:17:56;;;;;;;0.73;0.73;;;0.10;99.90;;;;;;5091020;28;20572;-70
2023/10/29 00:20:21;;;;;;;0.50;0.50;;;0.10;99.90;;;;;;5072183;28;20215;-70
2023/10/29 00:22:47;;;;;;;0.63;0.63;;;0.10;99.90;;;;;;5090770;28;20603;-70
2023/10/29 00:25:13;;;;;;;0.63;0.63;;;0.10;99.90;;;;;;5072408;28;20196;-70
2023/10/29 00:27:38;;;;;;;0.60;0.60;;;0.10;99.90;;;;;;5090793;28;20534;-69
2023/10/29 00:30:05;;;;;;;0.60;0.60;;;0.10;99.90;;;;;;5090702;28;20212;-70
2023/10/29 00:32:31;;;;;;;0.80;0.80;;;0.20;99.90;;;;;;5072397;28;20253;-69
2023/10/29 00:34:57;;;;;;;0.70;0.70;;;0.10;99.90;;;;;;5090688;28;20655;-70
2023/10/29 00:37:22;;;;;;;0.60;0.60;;;0.10;99.90;;;;;;5090226;28;20202;-70
2023/10/29 00:39:48;;;;;;;0.60;0.60;;;0.10;99.90;;;;;;5090237;28;20634;-70
2023/10/29 00:42:14;;;;;;;0.75;0.75;;;0.10;99.90;;;;;;5090408;28;20267;-70
2023/10/29 00:44:39;;;;;;;0.80;0.80;;;0.10;99.90;;;;;;5090330;28;20196;-70
2023/10/29 00:47:06;;;;;;;3.33;1.00;;;0.10;99.90;;;;;;5090673;28;20198;-70
2023/10/29 00:49:33;;;;;;;0.60;0.60;;;0.10;99.90;;;;;;5090272;28;20249;-69
2023/10/29 00:51:59;;;;;;;0.70;0.70;;;0.10;99.90;;;;;;5089493;28;20737;-69
2023/10/29 00:54:25;;;;;;;0.80;0.80;;;0.10;99.90;;;;;;5072758;28;20231;-70
2023/10/29 00:56:53;;;;;;;0.70;0.70;;;0.20;99.90;;;;;;5077660;28;20594;-70
2023/10/29 00:59:20;;;;;;;0.60;0.60;;;0.20;99.90;;;;;;5069945;28;20216;-70
2023/10/29 01:01:46;;;;;;;0.70;0.70;;;0.20;99.90;;;;;;5069484;28;20662;-70
2023/10/29 01:04:12;;;;;;;0.60;0.60;;;0.20;99.90;;;;;;5079874;28;20282;-70
2023/10/29 01:06:40;;;;;;;0.60;0.60;;;0.20;99.90;;;;;;5089729;28;20258;-70
2023/10/29 01:09:07;;;;;;;2.40;1.17;;;0.20;99.90;;;;;;5089414;28;20659;-70
2023/10/29 01:11:33;;;;;;;0.50;0.50;;;0.20;99.90;;;;;;5089124;28;20230;-70
2023/10/29 01:14:01;;;;;;;0.70;0.70;;;0.20;99.90;;;;;;5089823;28;20192;-70
2023/10/29 01:16:28;;;;;;;0.60;0.60;;;0.20;99.90;;;;;;5089452;28;20257;-70
2023/10/29 01:18:55;;;;;;;0.63;0.63;;;0.20;99.90;;;;;;5089332;28;20647;-70
2023/10/29 01:21:21;;;;;;;0.77;0.77;;;0.20;99.90;;;;;;5086638;28;20238;-69
2023/10/29 01:23:46;;;;;;;0.70;0.70;;;0.10;99.90;;;;;;5087657;28;20237;-69
2023/10/29 01:26:12;;;;;;;0.60;0.60;;;0.10;99.90;;;;;;5089215;28;20248;-69
2023/10/29 01:28:38;;;;;;;0.60;0.60;;;0.10;99.90;;;;;;5074739;28;20197;-70
2023/10/29 01:31:05;;;;;;;0.50;0.50;;;0.10;99.90;;;;;;5069392;28;20197;-69
2023/10/29 01:33:30;;;;;;;0.63;0.63;;;0.10;99.90;;;;;;5073653;28;20302;-69
2023/10/29 01:35:56;;;;;;;0.60;0.60;;;0.10;99.90;;;;;;5089296;28;20199;-69
2023/10/29 01:38:22;;;;;;;0.60;0.60;;;0.10;99.90;;;;;;5089044;28;20266;-70
2023/10/29 01:40:48;;;;;;;0.52;0.52;;;0.00;99.90;;;;;;5089144;28;20208;-70
2023/10/29 01:43:14;;;;;;;0.70;0.70;;;0.00;99.90;;;;;;5089218;28;20192;-70
2023/10/29 01:45:39;;;;;;;0.60;0.60;;;0.00;99.90;;;;;;5088721;28;20195;-70
2023/10/29 01:48:05;;;;;;;0.70;0.70;;;0.00;99.90;;;;;;5089066;28;20270;-69
2023/10/29 01:50:31;;;;;;;0.60;0.60;;;0.00;99.90;;;;;;5089017;28;20254;-70
2023/10/29 01:52:57;;;;;;;0.70;0.70;;;0.00;99.90;;;;;;5077968;28;20204;-69
2023/10/29 01:55:22;;;;;;;0.68;0.68;;;0.00;99.90;;;;;;5081429;28;20273;-69
2023/10/29 01:57:48;;;;;;;0.98;0.98;;;0.10;99.90;;;;;;5089341;28;20212;-70
2023/10/29 02:00:14;;;;;;;0.70;0.70;;;0.00;99.90;;;;;;5089181;28;20212;-70
2023/10/29 02:02:40;;;;;;;0.60;0.60;;;0.10;99.90;;;;;;5089187;28;20625;-70
2023/10/29 02:05:06;;;;;;;0.60;0.60;;;0.10;99.90;;;;;;5114666;28;20219;-70
2023/10/29 02:07:32;;;;;;;0.70;0.70;;;0.10;99.90;;;;;;5116050;28;20199;-70
2023/10/29 02:09:57;;;;;;;0.70;0.70;;;0.10;99.90;;;;;;5116220;28;20206;-70
2023/10/29 02:12:23;;;;;;;0.60;0.60;;;0.10;99.90;;;;;;5116076;28;20730;-70
2023/10/29 02:14:49;;;;;;;0.60;0.60;;;0.10;99.90;;;;;;5116044;28;20561;-70
2023/10/29 02:17:14;;;;;;;0.90;0.90;;;0.10;99.90;;;;;;5116005;28;20194;-69
2023/10/29 02:19:40;;;;;;;0.70;0.70;;;0.10;99.90;;;;;;5115777;28;20597;-70
2023/10/29 02:22:06;;;;;;;0.60;0.60;;;0.10;99.90;;;;;;5115566;28;20974;-69
2023/10/29 02:24:31;;;;;;;0.60;0.60;;;0.10;99.90;;;;;;5103594;27;20192;-69
2023/10/29 02:26:57;;;;;;;0.70;0.70;;;0.10;99.90;;;;;;5095203;28;20651;-70
2023/10/29 02:29:23;;;;;;;0.60;0.60;;;0.10;99.90;;;;;;5077066;28;20192;-70
2023/10/29 02:31:48;;;;;;;0.80;0.80;;;0.10;99.90;;;;;;5115322;28;20210;-70
2023/10/29 02:34:14;;;;;;;0.70;0.70;;;0.10;99.90;;;;;;5115367;28;20277;-70
2023/10/29 02:36:40;;;;;;;0.60;0.60;;;0.10;99.90;;;;;;5114401;28;20213;-70
2023/10/29 02:39:06;;;;;;;0.70;0.70;;;0.10;99.90;;;;;;5115151;28;20200;-70
2023/10/29 02:41:32;;;;;;;0.60;0.60;;;0.10;99.90;;;;;;5114922;28;20183;-70
2023/10/29 02:43:58;;;;;;;0.52;0.52;;;0.10;99.90;;;;;;5114404;28;20199;-70
2023/10/29 02:46:24;;;;;;;0.65;0.65;;;0.10;99.90;;;;;;5115269;28;20191;-71
2023/10/29 02:48:50;;;;;;;0.70;0.70;;;0.10;99.90;;;;;;5106354;28;20268;-70
2023/10/29 02:51:16;;;;;;;0.70;0.70;;;0.10;99.90;;;;;;5094658;28;20204;-70
2023/10/29 02:53:42;;;;;;;0.60;0.60;;;0.10;99.90;;;;;;5094610;28;20253;-70
2023/10/29 02:56:07;;;;;;;0.60;0.60;;;0.20;99.90;;;;;;5075330;28;20320;-70
2023/10/29 02:58:34;;;;;;;0.70;0.70;;;0.20;99.90;;;;;;5074679;28;20683;-71
2023/10/29 03:01:07;;;;;;;0.60;0.60;;;0.20;99.90;;;;;;5055839;28;20258;-70
2023/10/29 03:03:33;;;;;;;0.70;0.70;;;0.20;99.90;;;;;;5079535;28;20709;-70
2023/10/29 03:06:04;;;;;;;0.57;0.57;;;0.20;99.90;;;;;;5094133;28;20321;-70
2023/10/29 03:08:29;;;;;;;0.65;0.65;;;0.20;99.90;;;;;;5075442;28;20711;-71
2023/10/29 03:10:56;;;;;;;0.60;0.60;;;0.20;99.90;;;;;;5094167;28;20202;-71
2023/10/29 03:13:22;;;;;;;0.60;0.60;;;0.30;99.90;;;;;;5075663;28;20718;-71
2023/10/29 03:15:47;;;;;;;0.60;0.60;;;0.30;99.90;;;;;;5090790;28;20321;-71
2023/10/29 03:18:13;;;;;;;0.60;0.60;;;0.30;99.90;;;;;;5072166;28;20555;-70
2023/10/29 03:20:40;;;;;;;2.15;0.90;;;0.30;99.90;;;;;;5090720;28;20594;-70
2023/10/29 03:23:06;;;;;;;0.50;0.50;;;0.30;99.90;;;;;;5072402;28;20701;-70
2023/10/29 03:25:31;;;;;;;0.60;0.60;;;0.30;99.90;;;;;;5090662;28;20223;-70
2023/10/29 03:27:57;;;;;;;0.50;0.50;;;0.30;99.90;;;;;;5091184;28;20573;-70
2023/10/29 03:30:23;;;;;;;0.50;0.50;;;0.30;99.90;;;;;;5090230;28;20200;-70
2023/10/29 03:32:48;;;;;;;0.50;0.50;;;0.40;99.90;;;;;;5091151;28;20200;-71
2023/10/29 03:35:14;;;;;;;0.60;0.60;;;0.40;99.90;;;;;;5090808;28;20275;-70
2023/10/29 03:37:40;;;;;;;0.68;0.68;;;0.40;99.90;;;;;;5090674;28;20200;-70
2023/10/29 03:40:07;;;;;;;0.50;0.50;;;0.40;99.90;;;;;;5072243;28;20207;-71
2023/10/29 03:42:33;;;;;;;0.60;0.60;;;0.40;99.90;;;;;;5072234;28;20208;-70
2023/10/29 03:44:59;;;;;;;0.60;0.60;;;0.40;99.90;;;;;;5082668;28;20216;-70
2023/10/29 03:47:24;;;;;;;0.65;0.65;;;0.40;99.90;;;;;;5070147;28;20281;-70
2023/10/29 03:49:51;;;;;;;1.65;0.95;;;0.40;99.90;;;;;;5070006;28;20249;-70
2023/10/29 03:52:19;;;;;;;0.57;0.57;;;0.40;99.90;;;;;;5070339;28;20204;-68
2023/10/29 03:54:45;;;;;;;0.60;0.60;;;0.40;99.90;;;;;;5077332;28;20599;-66
2023/10/29 03:57:11;;;;;;;0.70;0.70;;;0.40;99.90;;;;;;5090405;28;20231;-69
2023/10/29 03:59:36;;;;;;;0.50;0.50;;;0.40;99.90;;;;;;5089928;28;20214;-67
2023/10/29 04:02:02;;;;;;;0.63;0.63;;;0.40;99.90;;;;;;5098766;28;20226;-67
2023/10/29 04:04:28;;;;;;;0.50;0.50;;;0.40;99.90;;;;;;5107027;28;20215;-66
2023/10/29 04:06:53;;;;;;;0.60;0.60;;;0.40;99.90;;;;;;5076896;28;20668;-67
2023/10/29 04:09:19;;;;;;;0.50;0.50;;;0.40;99.90;;;;;;5089834;28;20199;-69
2023/10/29 04:11:45;;;;;;;0.93;0.90;;;0.50;99.90;;;;;;5090161;28;20288;-70
2023/10/29 04:14:10;;;;;;;0.52;0.52;;;0.50;99.90;;;;;;5090059;28;20192;-67
2023/10/29 04:16:36;;;;;;;0.60;0.60;;;0.50;99.90;;;;;;5083492;28;20204;-67
2023/10/29 04:19:02;;;;;;;0.60;0.60;;;0.50;99.90;;;;;;5089519;28;20592;-66
2023/10/29 04:21:27;;;;;;;0.50;0.50;;;0.50;99.90;;;;;;5089488;28;20253;-66
2023/10/29 04:23:53;;;;;;;0.57;0.57;;;0.50;99.90;;;;;;5107622;28;20199;-67
2023/10/29 04:26:19;;;;;;;0.63;0.63;;;0.50;99.90;;;;;;5109914;28;20237;-66
2023/10/29 04:28:45;;;;;;;0.70;0.70;;;0.50;99.90;;;;;;5110048;28;20274;-68
2023/10/29 04:31:11;;;;;;;0.50;0.50;;;0.50;99.90;;;;;;5110151;28;20617;-66
2023/10/29 04:33:38;;;;;;;0.50;0.50;;;0.50;99.90;;;;;;5109943;28;20248;-66
2023/10/29 04:36:04;;;;;;;0.50;0.50;;;0.50;99.90;;;;;;5108851;28;20734;-68
2023/10/29 04:38:31;;;;;;;0.60;0.60;;;0.50;99.90;;;;;;5108230;28;20274;-66
2023/10/29 04:40:57;;;;;;;0.70;0.70;;;0.60;99.90;;;;;;5110565;28;20192;-70
2023/10/29 04:43:22;;;;;;;0.50;0.50;;;0.60;99.90;;;;;;5110453;28;20264;-67
2023/10/29 04:45:48;;;;;;;0.65;0.65;;;0.60;99.90;;;;;;5092322;28;20200;-67
2023/10/29 04:48:16;;;;;;;0.60;0.60;;;0.60;99.90;;;;;;5110609;28;20191;-68
2023/10/29 04:50:41;;;;;;;0.60;0.60;;;0.60;99.90;;;;;;5110616;28;20195;-66
2023/10/29 04:53:07;;;;;;;0.63;0.63;;;0.60;99.90;;;;;;5092344;28;20199;-67
2023/10/29 04:55:32;;;;;;;0.60;0.60;;;0.60;99.90;;;;;;5096041;28;20306;-67
2023/10/29 04:57:58;;;;;;;0.80;0.80;;;0.60;99.90;;;;;;5089606;28;20231;-69
2023/10/29 05:00:24;;;;;;;0.55;0.55;;;0.60;99.90;;;;;;5089085;28;20243;-66
2023/10/29 05:02:49;;;;;;;0.55;0.55;;;0.60;99.90;;;;;;5089358;28;20200;-69
2023/10/29 05:05:15;;;;;;;0.55;0.55;;;0.60;99.90;;;;;;5089952;28;20206;-69
2023/10/29 05:07:43;;;;;;;0.80;0.80;;;0.50;99.90;;;;;;5089541;28;20188;-69
2023/10/29 05:10:08;;;;;;;0.50;0.50;;;0.50;99.90;;;;;;5089745;28;20200;-70
2023/10/29 05:12:34;;;;;;;0.52;0.52;;;0.60;99.90;;;;;;5071027;28;20202;-69
2023/10/29 05:15:00;;;;;;;0.60;0.60;;;0.60;99.90;;;;;;5089476;28;20222;-70
2023/10/29 05:17:25;;;;;;;0.50;0.50;;;0.60;99.90;;;;;;5089630;28;20745;-69
2023/10/29 05:19:51;;;;;;;0.70;0.70;;;0.70;99.90;;;;;;5089347;28;20221;-70
2023/10/29 05:22:17;;;;;;;0.60;0.60;;;0.60;99.90;;;;;;5070232;28;20683;-68
2023/10/29 05:24:42;;;;;;;0.43;0.43;;;0.60;99.90;;;;;;5069465;28;20203;-70
2023/10/29 05:27:08;;;;;;;0.60;0.60;;;0.60;99.90;;;;;;5088756;28;20239;-69
2023/10/29 05:29:34;;;;;;;0.65;0.65;;;0.60;99.90;;;;;;5088540;28;20561;-69
2023/10/29 05:32:00;;;;;;;0.60;0.60;;;0.60;99.90;;;;;;5088599;28;20212;-70
2023/10/29 05:34:26;;;;;;;0.60;0.60;;;0.60;99.90;;;;;;5088417;28;20227;-68
2023/10/29 05:36:51;;;;;;;0.60;0.60;;;0.50;99.90;;;;;;5088286;28;20192;-69
2023/10/29 05:39:17;;;;;;;0.60;0.60;;;0.60;99.90;;;;;;5087862;28;20195;-69
2023/10/29 05:41:42;;;;;;;0.60;0.60;;;0.60;99.90;;;;;;5087992;28;20278;-69
2023/10/29 05:44:08;;;;;;;0.65;0.65;;;0.50;99.90;;;;;;5088185;28;20192;-69
2023/10/29 05:46:34;;;;;;;0.60;0.60;;;0.50;99.90;;;;;;5069888;28;20196;-70
2023/10/29 05:49:00;;;;;;;0.52;0.52;;;0.50;99.90;;;;;;5089046;28;20530;-70
2023/10/29 05:51:25;;;;;;;0.70;0.70;;;0.50;99.90;;;;;;5089323;28;20293;-69
2023/10/29 05:53:51;;;;;;;0.60;0.60;;;0.50;99.90;;;;;;5089185;28;20192;-69
2023/10/29 05:56:18;;;;;;;1.05;0.95;;;0.60;99.90;;;;;;5108995;28;20310;-70
2023/10/29 05:58:44;;;;;;;0.65;0.65;;;0.60;99.90;;;;;;5109671;28;20195;-69
2023/10/29 06:01:10;;;;;;;1.67;1.08;;;0.60;99.90;;;;;;5109618;28;20211;-69
2023/10/29 06:03:36;;;;;;;0.55;0.55;;;0.60;99.90;;;;;;5108986;28;20196;-72
2023/10/29 06:06:02;;;;;;;0.50;0.50;;;0.60;99.90;;;;;;5109396;28;20188;-69
2023/10/29 06:08:28;;;;;;;0.50;0.50;;;0.60;99.90;;;;;;5108645;28;20210;-68
2023/10/29 06:10:54;;;;;;;0.70;0.70;;;0.60;99.90;;;;;;5109426;28;20203;-71
2023/10/29 06:13:20;;;;;;;0.63;0.63;;;0.60;99.90;;;;;;5108640;28;20210;-69
2023/10/29 06:15:46;;;;;;;0.60;0.60;;;0.60;99.90;;;;;;5109262;28;20265;-72
2023/10/29 06:18:12;;;;;;;0.60;0.60;;;0.70;99.90;;;;;;5099370;28;20203;-68
2023/10/29 06:20:41;;;;;;;0.60;0.60;;;0.70;99.90;;;;;;5088073;28;20232;-69
2023/10/29 06:23:08;;;;;;;0.60;0.60;;;0.70;99.90;;;;;;5088745;28;20671;-69
2023/10/29 06:25:34;;;;;;;0.60;0.60;;;0.70;99.90;;;;;;5088445;28;20184;-68
2023/10/29 06:27:59;;;;;;;0.60;0.60;;;0.70;99.90;;;;;;5103281;28;20209;-68
2023/10/29 06:30:25;;;;;;;0.60;0.60;;;0.70;99.90;;;;;;5109105;28;20266;-71
2023/10/29 06:32:51;;;;;;;4.25;1.88;;;0.70;99.90;;;;;;5109009;28;20238;-69
2023/10/29 06:35:17;;;;;;;0.50;0.50;;;0.70;99.90;;;;;;5088650;28;20192;-69
2023/10/29 06:37:42;;;;;;;0.50;0.50;;;0.80;99.90;;;;;;5088746;28;20196;-69
2023/10/29 06:40:08;;;;;;;0.60;0.60;;;0.80;99.90;;;;;;5088897;28;20216;-70
2023/10/29 06:42:35;;;;;;;0.50;0.50;;;0.80;99.90;;;;;;5089144;28;20196;-68
2023/10/29 06:45:02;;;;;;;0.60;0.60;;;0.80;99.90;;;;;;5088874;28;20203;-69
2023/10/29 06:47:27;;;;;;;0.60;0.60;;;0.80;99.90;;;;;;5088521;28;20903;-71
2023/10/29 06:49:55;;;;;;;2.25;1.70;;;0.80;99.90;;;;;;5088799;28;20199;-69
2023/10/29 06:52:21;;;;;;;0.60;0.60;;;0.80;99.90;;;;;;5104209;28;21011;-69
2023/10/29 06:54:47;;;;;;;0.60;0.60;;;0.80;99.90;;;;;;5105268;28;20226;-67
2023/10/29 06:57:13;;;;;;;0.80;0.80;;;0.80;99.90;;;;;;5092485;28;20671;-66
2023/10/29 06:59:39;;;;;;;0.70;0.70;;;0.80;99.90;;;;;;5092296;28;20809;-66
2023/10/29 07:02:05;;;;;;;0.60;0.60;;;0.80;99.90;;;;;;5092248;28;20196;-68
2023/10/29 07:04:32;;;;;;;0.68;0.68;;;0.80;99.90;;;;;;5091521;28;20672;-69
2023/10/29 07:06:57;;;;;;;0.68;0.68;;;0.90;99.90;;;;;;5092192;28;20211;-67
2023/10/29 07:09:23;;;;;;;0.60;0.60;;;0.90;99.90;;;;;;5092101;28;20193;-66
2023/10/29 07:11:49;;;;;;;0.52;0.52;;;1.00;99.90;;;;;;5073742;28;20278;-65
2023/10/29 07:14:15;;;;;;;0.60;0.60;;;0.90;99.90;;;;;;5092280;28;20200;-66
2023/10/29 07:16:44;;;;;;;0.60;0.60;;;0.90;99.90;;;;;;5091869;28;20348;-65
2023/10/29 07:19:11;;;;;;;0.60;0.60;;;1.00;99.90;;;;;;5073478;28;20655;-66
2023/10/29 07:21:37;;;;;;;0.60;0.60;;;1.00;99.90;;;;;;5091262;28;20192;-67
2023/10/29 07:24:05;;;;;;;0.60;0.60;;;1.10;99.90;;;;;;5091484;28;20835;-72
2023/10/29 07:26:31;;;;;;;0.70;0.70;;;1.10;99.90;;;;;;5073341;28;20192;-70
2023/10/29 07:28:57;;;;;;;0.50;0.50;;;1.20;99.90;;;;;;5073375;28;20662;-69
2023/10/29 07:31:23;;;;;;;0.93;0.93;;;1.20;99.90;;;;;;5072518;28;20196;-71
2023/10/29 07:33:49;;;;;;;1.45;1.02;;;1.20;99.90;;;;;;5071651;28;20204;-70
2023/10/29 07:36:16;;;;;;;2.42;2.05;;;1.30;99.90;;;;;;5070999;28;20861;-70
2023/10/29 07:38:43;;;;;;;1.38;1.13;;;1.30;99.90;;;;;;5071219;28;20548;-70
2023/10/29 07:41:11;;;;;;;0.80;0.80;;;1.30;99.90;;;;;;5071319;28;20205;-70
2023/10/29 07:43:37;;;;;;;0.50;0.50;;;1.30;99.90;;;;;;5052751;28;20258;-70
2023/10/29 07:46:04;;;;;;;1.45;1.05;;;1.30;99.90;;;;;;5052954;28;20234;-70
2023/10/29 07:48:30;;;;;;;0.80;0.80;;;1.20;99.90;;;;;;5070721;28;20200;-70
2023/10/29 07:50:56;;;;;;;1.30;1.00;;;1.30;99.90;;;;;;5053312;28;20807;-71
2023/10/29 07:53:22;;;;;;;0.70;0.70;;;1.30;99.90;;;;;;5052997;28;20648;-71
2023/10/29 07:55:47;;;;;;;0.75;0.75;;;1.30;99.90;;;;;;5086626;28;20311;-70
2023/10/29 07:58:15;;;;;;;0.60;0.60;;;1.30;99.90;;;;;;5073513;28;20741;-70
2023/10/29 08:00:41;;;;;;;0.50;0.50;;;1.40;99.90;;;;;;5103154;28;20207;-70
2023/10/29 08:03:06;;;;;;;0.60;0.60;;;1.30;99.90;;;;;;5075305;28;20185;-70
2023/10/29 08:05:32;;;;;;;0.60;0.60;;;1.30;99.90;;;;;;5110602;28;20245;-71
2023/10/29 08:07:58;;;;;;;1.10;1.00;;;1.30;99.90;;;;;;5091940;28;20199;-71
2023/10/29 08:10:24;;;;;;;0.60;0.60;;;1.30;99.90;;;;;;5093182;28;20203;-70
2023/10/29 08:12:50;;;;;;;0.60;0.60;;;1.30;99.90;;;;;;5111205;28;20685;-70
2023/10/29 08:15:16;;;;;;;0.60;0.60;;;1.30;99.90;;;;;;5111322;28;20197;-71
2023/10/29 08:17:42;;;;;;;0.60;0.60;;;1.40;99.90;;;;;;5110961;28;20282;-71
2023/10/29 08:20:08;;;;;;;0.60;0.60;;;1.40;99.90;;;;;;5092635;28;20238;-71
2023/10/29 08:22:34;;;;;;;0.70;0.70;;;1.40;99.90;;;;;;5110860;28;20191;-70
2023/10/29 08:24:59;;;;;;;0.60;0.60;;;1.50;99.90;;;;;;5110803;28;20209;-71
2023/10/29 08:27:25;;;;;;;0.60;0.60;;;1.50;99.90;;;;;;5093070;28;20256;-71
2023/10/29 08:29:52;;;;;;;1.13;1.08;;;1.50;99.90;;;;;;5072329;28;20629;-71
2023/10/29 08:32:18;;;;;;;0.60;0.60;;;1.50;99.90;;;;;;5090276;28;20207;-68
2023/10/29 08:34:44;;;;;;;0.50;0.50;;;1.50;99.90;;;;;;5090339;28;20200;-71
2023/10/29 08:37:12;;;;;;;0.75;0.75;;;1.50;99.90;;;;;;5090480;28;20196;-70
2023/10/29 08:39:38;;;;;;;0.60;0.60;;;1.50;99.90;;;;;;5089905;28;20219;-70
2023/10/29 08:42:04;;;;;;;0.60;0.60;;;1.50;99.90;;;;;;5090195;28;20192;-70
2023/10/29 08:44:30;;;;;;;0.70;0.70;;;1.60;99.90;;;;;;5089868;28;20677;-70
2023/10/29 08:46:56;;;;;;;0.70;0.70;;;1.60;99.90;;;;;;5089885;28;20196;-69
2023/10/29 08:49:21;;;;;;;0.60;0.60;;;1.60;99.90;;;;;;5089815;28;20287;-70
2023/10/29 08:51:47;;;;;;;0.50;0.50;;;1.60;99.90;;;;;;5090135;28;20221;-71
2023/10/29 08:54:13;;;;;;;0.63;0.63;;;1.60;99.90;;;;;;5087021;28;20193;-71
2023/10/29 08:56:39;;;;;;;0.70;0.70;;;1.60;99.90;;;;;;5061220;28;20219;-70
2023/10/29 08:59:05;;;;;;;0.60;0.60;;;1.60;99.90;;;;;;5053650;28;20205;-69
2023/10/29 09:01:32;;;;;;;0.70;0.70;;;1.60;99.90;;;;;;5069626;28;20208;-70
2023/10/29 09:03:57;;;;;;;0.70;0.70;;;1.60;99.90;;;;;;5070688;28;20197;-70
2023/10/29 09:06:24;;;;;;;0.60;0.60;;;1.60;99.90;;;;;;5069183;28;20697;-70
2023/10/29 09:08:50;;;;;;;1.25;1.10;;;1.70;99.90;;;;;;5069385;28;20189;-70
2023/10/29 09:11:16;;;;;;;0.60;0.60;;;1.70;99.90;;;;;;5051466;28;20679;-70
2023/10/29 09:13:41;;;;;;;0.57;0.57;;;1.70;99.90;;;;;;5068594;28;20196;-71
2023/10/29 09:16:08;;;;;;;0.50;0.50;;;1.70;99.90;;;;;;5069344;28;20203;-71
2023/10/29 09:18:34;;;;;;;0.57;0.57;;;1.80;99.90;;;;;;5069262;28;20235;-71
2023/10/29 09:21:00;;;;;;;0.60;0.60;;;1.80;99.90;;;;;;5069374;28;20749;-71
2023/10/29 09:23:27;;;;;;;0.65;0.65;;;1.80;99.90;;;;;;5069062;28;20220;-71
2023/10/29 09:25:53;;;;;;;0.70;0.70;;;1.80;99.90;;;;;;5069313;28;20715;-71
2023/10/29 09:28:20;;;;;;;0.50;0.50;;;1.80;99.90;;;;;;5050857;28;20199;-71
2023/10/29 09:30:47;;;;;;;0.50;0.50;;;1.90;99.90;;;;;;5068552;28;20201;-71
2023/10/29 09:33:12;;;;;;;1.20;1.15;;;2.00;99.90;;;;;;5050424;28;20448;-71
2023/10/29 09:35:42;;;;;;;1.45;1.35;;;2.00;99.90;;;;;;5068377;28;20231;-70
2023/10/29 09:38:08;;;;;;;0.70;0.70;;;2.00;99.90;;;;;;5068526;28;20420;-71
2023/10/29 09:40:35;;;;;;;0.70;0.70;;;2.00;99.90;;;;;;5068206;28;20270;-71
2023/10/29 09:43:08;;;;;;;0.90;0.90;;;2.10;99.90;;;;;;5068395;28;20696;-70
2023/10/29 09:45:45;;;;;;;0.68;0.68;;;2.10;99.90;;;;;;5068218;28;20216;-71
2023/10/29 09:48:13;;;;;;;0.55;0.55;;;2.10;99.90;;;;;;5068081;28;20220;-71
2023/10/29 09:50:40;;;;;;;0.60;0.60;;;2.10;99.90;;;;;;5068473;28;20709;-71
2023/10/29 09:53:06;;;;;;;0.63;0.63;;;2.10;99.90;;;;;;5079999;28;20283;-71
2023/10/29 09:55:33;;;;;;;0.60;0.60;;;2.10;99.90;;;;;;5081589;28;20231;-70
2023/10/29 09:57:59;;;;;;;0.70;0.70;;;2.10;99.90;;;;;;5088272;28;20338;-71
2023/10/29 10:00:25;;;;;;;0.50;0.50;;;2.00;99.90;;;;;;5079501;28;20738;-70
2023/10/29 10:02:56;;;;;;;0.70;0.70;;;2.10;99.90;;;;;;5108055;28;20536;-71
2023/10/29 10:05:27;;;;;;;0.70;0.70;;;2.00;99.90;;;;;;5108578;28;20226;-71
2023/10/29 10:07:54;;;;;;;0.60;0.60;;;2.00;99.90;;;;;;5108615;28;20191;-72
2023/10/29 10:10:21;;;;;;;0.80;0.80;;;1.90;99.90;;;;;;5107996;28;20200;-71
2023/10/29 10:12:50;;;;;;;0.60;0.60;;;1.90;99.90;;;;;;5108546;28;20203;-71
2023/10/29 10:15:19;;;;;;;0.80;0.80;;;1.90;99.90;;;;;;5108129;28;20206;-73
2023/10/29 10:17:56;;;;;;;0.70;0.70;;;2.00;99.90;;;;;;5089898;28;20203;-73
2023/10/29 10:20:22;;;;;;;0.60;0.60;;;2.00;99.90;;;;;;5087954;28;20262;-72
2023/10/29 10:23:00;;;;;;;0.70;0.70;;;2.10;99.90;;;;;;5069719;28;20196;-71
2023/10/29 10:25:26;;;;;;;0.60;0.60;;;2.10;99.90;;;;;;5090544;28;20806;-72
2023/10/29 10:27:56;;;;;;;0.60;0.60;;;2.10;99.90;;;;;;5073923;28;20231;-72
2023/10/29 10:30:30;;;;;;;0.60;0.60;;;2.00;99.90;;;;;;5092070;28;20197;-73
2023/10/29 10:33:08;;;;;;;0.60;0.60;;;2.00;99.90;;;;;;5073581;28;20671;-73
2023/10/29 10:35:45;;;;;;;1.48;1.15;;;1.90;99.90;;;;;;5073945;28;20242;-73
2023/10/29 10:38:11;;;;;;;0.60;0.60;;;1.80;99.90;;;;;;5092326;28;20705;-73
2023/10/29 10:40:38;;;;;;;0.70;0.70;;;1.90;99.90;;;;;;5092706;28;20209;-72
2023/10/29 10:43:04;;;;;;;0.80;0.80;;;1.90;99.90;;;;;;5092749;28;20204;-73
2023/10/29 10:45:31;;;;;;;0.57;0.57;;;2.00;99.90;;;;;;5092489;28;20193;-72
2023/10/29 10:48:03;;;;;;;0.90;0.90;;;1.90;99.90;;;;;;5092873;28;20565;-72
2023/10/29 10:50:30;;;;;;;0.63;0.63;;;1.80;99.90;;;;;;5112603;28;20207;-72
2023/10/29 10:52:57;;;;;;;0.55;0.55;;;1.80;99.90;;;;;;5112787;28;20207;-71
2023/10/29 10:55:24;;;;;;;0.57;0.57;;;1.80;99.90;;;;;;5099563;28;20254;-72
2023/10/29 10:57:51;;;;;;;0.60;0.60;;;1.80;99.90;;;;;;5092196;28;20286;-71
2023/10/29 11:00:19;;;;;;;0.60;0.60;;;1.80;99.90;;;;;;5092203;28;20208;-72
2023/10/29 11:02:46;;;;;;;0.40;0.40;;;1.90;99.90;;;;;;5073811;28;20192;-71
2023/10/29 11:05:13;;;;;;;0.60;0.60;;;2.00;99.90;;;;;;5091857;28;20651;-72
2023/10/29 11:07:41;;;;;;;0.70;0.70;;;2.00;99.90;;;;;;5092074;28;20729;-72
2023/10/29 11:10:08;;;;;;;0.60;0.60;;;2.00;99.90;;;;;;5075964;28;20209;-72
2023/10/29 11:12:38;;;;;;;0.57;0.57;;;2.00;99.90;;;;;;5072063;28;20652;-72
2023/10/29 11:15:34;;;;;;;0.57;0.57;;;1.80;99.90;;;;;;5071406;28;20204;-71
2023/10/29 11:18:01;;;;;;;1.55;1.13;;;1.80;99.90;;;;;;5069983;28;20220;-72
2023/10/29 11:20:39;;;;;;;0.60;0.60;;;1.80;99.90;;;;;;5071672;28;20660;-71
2023/10/29 11:23:14;;;;;;;0.60;0.60;;;1.80;99.90;;;;;;5071791;28;20242;-72
2023/10/29 11:25:41;;;;;;;0.60;0.60;;;1.80;99.90;;;;;;5053442;28;20287;-72
2023/10/29 11:28:32;;;;;;;0.63;0.63;;;1.90;99.90;;;;;;5071736;28;20621;-71
2023/10/29 11:31:17;;;;;;;0.60;0.60;;;1.90;99.90;;;;;;5071444;28;20201;-71
2023/10/29 11:33:45;;;;;;;0.63;0.63;;;1.90;99.90;;;;;;5053333;28;20200;-71
2023/10/29 11:36:34;;;;;;;0.65;0.65;;;1.90;99.90;;;;;;5070723;28;20196;-72
2023/10/29 11:39:15;;;;;;;1.50;1.40;;;1.90;99.90;;;;;;5071493;28;20197;-71
2023/10/29 11:41:43;;;;;;;0.60;0.60;;;1.90;99.90;;;;;;5071163;28;20220;-72
2023/10/29 11:44:19;;;;;;;0.50;0.50;;;2.00;99.90;;;;;;5053324;28;20227;-73
2023/10/29 11:47:02;;;;;;;0.55;0.55;;;2.00;99.90;;;;;;5070691;28;20910;-73
2023/10/29 11:49:46;;;;;;;0.60;0.60;;;2.00;99.90;;;;;;5070614;28;20246;-72
2023/10/29 11:52:12;;;;;;;0.60;0.60;;;2.10;99.90;;;;;;5074520;28;20211;-73
2023/10/29 11:54:38;;;;;;;0.70;0.70;;;2.10;99.90;;;;;;5097052;28;20977;-73
2023/10/29 11:57:07;;;;;;;0.60;0.60;;;2.20;99.90;;;;;;5111681;28;20540;-73
2023/10/29 11:59:33;;;;;;;0.70;0.70;;;2.20;99.90;;;;;;5111432;28;20646;-74
2023/10/29 12:01:59;;;;;;;0.70;0.70;;;2.20;99.90;;;;;;5111511;28;20199;-72
2023/10/29 12:04:32;;;;;;;0.60;0.60;;;2.20;99.90;;;;;;5076012;28;20223;-71
2023/10/29 12:06:58;;;;;;;0.70;0.70;;;2.20;99.90;;;;;;5070862;28;20200;-71
2023/10/29 12:09:27;;;;;;;0.60;0.60;;;2.10;99.90;;;;;;5070730;28;20235;-71
2023/10/29 12:11:54;;;;;;;0.55;0.55;;;2.10;99.90;;;;;;5070546;28;20367;-72
2023/10/29 12:14:43;;;;;;;0.50;0.50;;;2.10;99.90;;;;;;5052425;28;20670;-71
2023/10/29 12:17:09;;;;;;;0.52;0.52;;;2.10;99.90;;;;;;5070773;28;20216;-71
2023/10/29 12:19:46;;;;;;;0.50;0.50;;;2.10;99.90;;;;;;5070625;28;20222;-71
2023/10/29 12:22:14;;;;;;;0.82;0.82;;;2.10;99.90;;;;;;5052332;28;20740;-72
2023/10/29 12:24:41;;;;;;;0.70;0.70;;;2.10;99.90;;;;;;5070454;28;20185;-71
2023/10/29 12:27:07;;;;;;;0.77;0.77;;;2.20;99.90;;;;;;5070827;28;20241;-71
2023/10/29 12:29:33;;;;;;;0.68;0.68;;;2.20;99.90;;;;;;5070564;28;20284;-72
2023/10/29 12:31:58;;;;;;;0.47;0.47;;;2.30;99.90;;;;;;5070211;28;20197;-71
2023/10/29 12:34:24;;;;;;;0.50;0.50;;;2.40;99.90;;;;;;5070034;28;20185;-72
2023/10/29 12:36:50;;;;;;;0.70;0.70;;;2.40;99.90;;;;;;5070306;28;20185;-72
2023/10/29 12:39:15;;;;;;;0.68;0.68;;;2.40;99.90;;;;;;5069999;28;20218;-71
2023/10/29 12:41:41;;;;;;;0.60;0.60;;;2.50;99.90;;;;;;5080446;28;20216;-71
2023/10/29 12:44:16;;;;;;;0.50;0.50;;;2.50;99.90;;;;;;5079827;28;20215;-71
2023/10/29 12:46:49;;;;;;;0.50;0.50;;;2.50;99.90;;;;;;5090252;28;20216;-71
2023/10/29 12:49:22;;;;;;;0.60;0.60;;;2.60;99.90;;;;;;5089669;28;20200;-72
2023/10/29 12:51:52;;;;;;;0.60;0.60;;;2.80;99.90;;;;;;5071463;28;20208;-72
2023/10/29 12:54:25;;;;;;;0.60;0.60;;;2.80;99.90;;;;;;5092874;28;20235;-72
2023/10/29 12:57:00;;;;;;;0.50;0.50;;;2.90;99.90;;;;;;5091861;28;20692;-72